createdAt,value
2023-02-03T00:00:32.918Z,88.21
2023-02-03T00:02:36.038Z,89.31
2023-02-03T00:04:39.193Z,89.26
2023-02-03T00:06:42.340Z,89.36
2023-02-03T00:08:45.618Z,89.55
2023-02-03T00:10:51.253Z,88.25
2023-02-03T00:12:56.263Z,89.01
2023-02-03T00:14:59.266Z,89.46
2023-02-03T00:17:02.222Z,88.44
2023-02-03T00:19:05.223Z,88.80
2023-02-03T00:21:08.481Z,88.52
2023-02-03T00:23:12.388Z,89.21
2023-02-03T00:25:15.512Z,89.58
2023-02-03T00:27:19.849Z,88.37
2023-02-03T00:29:25.881Z,88.94
2023-02-03T00:31:28.961Z,88.84
2023-02-03T00:33:33.716Z,88.58
2023-02-03T00:35:39.363Z,88.98
2023-02-03T00:37:42.554Z,89.28
2023-02-03T00:39:45.546Z,89.27
2023-02-03T00:41:49.484Z,89.01
2023-02-03T00:43:55.656Z,88.48
2023-02-03T00:46:00.027Z,89.60
2023-02-03T00:48:03.276Z,88.98
2023-02-03T00:50:07.191Z,88.62
2023-02-03T00:52:11.383Z,89.54
2023-02-03T00:54:15.022Z,89.84
2023-02-03T00:56:18.310Z,89.88
2023-02-03T00:58:21.436Z,89.47
2023-02-03T01:00:26.180Z,88.46
2023-02-03T01:02:29.504Z,88.41
2023-02-03T01:04:32.469Z,89.64
2023-02-03T01:06:35.590Z,89.92
2023-02-03T01:08:38.861Z,88.35
2023-02-03T01:10:44.835Z,88.97
2023-02-03T01:12:47.787Z,89.85
2023-02-03T01:14:50.855Z,89.85
2023-02-03T01:16:55.517Z,89.70
2023-02-03T01:18:59.138Z,89.46
2023-02-03T01:21:08.756Z,89.39
2023-02-03T01:23:11.740Z,90.89
2023-02-03T01:25:14.813Z,89.86
2023-02-03T01:27:17.790Z,89.50
2023-02-03T01:29:20.801Z,89.31
2023-02-03T01:31:27.629Z,90.92
2023-02-03T01:33:31.958Z,89.67
2023-02-03T01:35:35.627Z,90.55
2023-02-03T01:37:39.255Z,89.39
2023-02-03T01:39:42.276Z,91.21
2023-02-03T01:41:45.580Z,90.39
2023-02-03T01:43:52.557Z,91.65
2023-02-03T01:45:55.846Z,90.58
2023-02-03T01:48:01.017Z,91.52
2023-02-03T01:50:11.148Z,92.21
2023-02-03T01:52:14.256Z,91.39
2023-02-03T01:54:19.502Z,91.86
2023-02-03T01:56:23.040Z,90.93
2023-02-03T01:58:29.373Z,90.76
2023-02-03T02:00:32.552Z,90.59
2023-02-03T02:02:36.811Z,91.24
2023-02-03T02:04:44.762Z,91.95
2023-02-03T02:06:49.270Z,91.64
2023-02-03T02:08:53.475Z,90.96
2023-02-03T02:10:56.852Z,91.01
2023-02-03T02:13:00.217Z,90.83
2023-02-03T02:15:03.640Z,91.05
2023-02-03T02:17:12.233Z,90.76
2023-02-03T02:19:35.392Z,90.81
2023-02-03T02:21:51.451Z,91.96
2023-02-03T02:24:21.493Z,92.24
2023-02-03T02:26:46.253Z,92.10
2023-02-03T02:29:04.554Z,92.32
2023-02-03T02:31:32.568Z,91.38
2023-02-03T02:33:42.841Z,92.17
2023-02-03T02:35:51.467Z,92.89
2023-02-03T02:38:00.545Z,92.56
2023-02-03T02:40:10.416Z,92.91
2023-02-03T02:42:17.322Z,94.55
2023-02-03T02:44:25.572Z,92.90
2023-02-03T02:46:34.997Z,93.80
2023-02-03T02:48:41.954Z,92.65
2023-02-03T02:50:48.142Z,93.13
2023-02-03T02:52:52.726Z,93.20
2023-02-03T02:54:59.606Z,93.11
2023-02-03T02:57:04.865Z,91.98
2023-02-03T02:59:08.572Z,92.94
2023-02-03T03:01:11.761Z,92.24
2023-02-03T03:03:17.684Z,92.43
2023-02-03T03:05:20.903Z,93.29
2023-02-03T03:07:28.294Z,93.71
2023-02-03T03:09:36.217Z,93.14
2023-02-03T03:11:44.160Z,91.68
2023-02-03T03:13:49.795Z,91.96
2023-02-03T03:15:55.430Z,92.54
2023-02-03T03:18:03.092Z,92.80
2023-02-03T03:20:11.281Z,92.79
2023-02-03T03:22:16.779Z,91.90
2023-02-03T03:24:23.375Z,91.39
2023-02-03T03:26:29.889Z,92.21
2023-02-03T03:28:38.190Z,92.09
2023-02-03T03:30:41.215Z,91.46
2023-02-03T03:32:44.361Z,91.64
2023-02-03T03:34:47.496Z,91.24
2023-02-03T03:36:57.742Z,91.11
2023-02-03T03:39:06.088Z,90.62
2023-02-03T03:41:14.222Z,91.06
2023-02-03T03:43:18.877Z,91.43
2023-02-03T03:45:26.344Z,90.13
2023-02-03T03:47:32.788Z,91.16
2023-02-03T03:49:37.156Z,90.48
2023-02-03T03:51:44.280Z,90.60
2023-02-03T03:53:51.661Z,90.87
2023-02-03T03:55:55.573Z,91.16
2023-02-03T03:58:01.248Z,90.89
2023-02-03T04:00:07.357Z,90.06
2023-02-03T04:02:15.103Z,89.42
2023-02-03T04:04:18.418Z,90.14
2023-02-03T04:06:21.473Z,90.49
2023-02-03T04:08:24.484Z,91.06
2023-02-03T04:10:35.616Z,90.18
2023-02-03T04:12:38.940Z,89.98
2023-02-03T04:14:42.129Z,90.31
2023-02-03T04:16:45.114Z,90.77
2023-02-03T04:18:48.260Z,91.24
2023-02-03T04:20:51.604Z,90.24
2023-02-03T04:22:54.749Z,90.78
2023-02-03T04:24:58.966Z,90.95
2023-02-03T04:27:05.178Z,91.11
2023-02-03T04:29:08.313Z,91.14
2023-02-03T04:31:11.331Z,91.34
2023-02-03T04:33:14.360Z,92.32
2023-02-03T04:35:17.498Z,92.41
2023-02-03T04:37:21.075Z,91.28
2023-02-03T04:39:23.990Z,91.53
2023-02-03T04:41:27.126Z,92.28
2023-02-03T04:43:31.552Z,92.00
2023-02-03T04:45:34.564Z,92.41
2023-02-03T04:47:37.976Z,91.71
2023-02-03T04:49:41.043Z,92.09
2023-02-03T04:51:44.220Z,92.10
2023-02-03T04:53:47.253Z,93.85
2023-02-03T04:55:50.295Z,93.71
2023-02-03T04:57:56.640Z,94.62
2023-02-03T05:00:01.119Z,94.69
2023-02-03T05:02:04.440Z,95.62
2023-02-03T05:04:07.468Z,95.88
2023-02-03T05:06:10.480Z,97.05
2023-02-03T05:08:13.631Z,98.16
2023-02-03T05:10:17.060Z,99.47
2023-02-03T05:12:20.016Z,98.10
2023-02-03T05:14:23.169Z,99.82
2023-02-03T05:16:27.568Z,99.51
2023-02-03T05:18:30.648Z,99.82
2023-02-03T05:20:33.628Z,99.93
2023-02-03T05:22:36.757Z,98.48
2023-02-03T05:24:39.822Z,99.05
2023-02-03T05:26:42.794Z,98.71
2023-02-03T05:28:45.899Z,98.73
2023-02-03T05:30:49.040Z,99.18
2023-02-03T05:32:53.465Z,98.39
2023-02-03T05:34:56.642Z,99.92
2023-02-03T05:37:00.928Z,100.00
2023-02-03T05:39:04.025Z,98.73
2023-02-03T05:41:24.832Z,98.68
2023-02-03T05:43:28.644Z,99.57
2023-02-03T05:45:31.713Z,100.00
2023-02-03T05:47:34.923Z,99.78
2023-02-03T05:49:39.396Z,100.00
2023-02-03T05:51:42.658Z,100.00
2023-02-03T05:53:45.713Z,99.59
2023-02-03T05:55:48.686Z,100.00
2023-02-03T05:57:51.647Z,100.00
2023-02-03T05:59:54.671Z,100.00
2023-02-03T06:01:57.667Z,100.00
2023-02-03T06:04:01.398Z,100.00
2023-02-03T06:06:06.469Z,100.00
2023-02-03T06:08:09.884Z,100.00
2023-02-03T06:10:12.981Z,100.00
2023-02-03T06:12:16.133Z,100.00
2023-02-03T06:14:19.085Z,100.00
2023-02-03T06:16:22.166Z,100.00
2023-02-03T06:18:25.225Z,100.00
2023-02-03T06:20:28.463Z,100.00
2023-02-03T06:22:33.256Z,100.00
2023-02-03T06:24:36.293Z,100.00
2023-02-03T06:26:39.268Z,100.00
2023-02-03T06:28:42.211Z,100.00
2023-02-03T06:30:45.491Z,100.00
2023-02-03T06:32:49.757Z,100.00
2023-02-03T06:34:52.755Z,100.00
2023-02-03T06:36:55.683Z,100.00
2023-02-03T06:39:00.003Z,100.00
2023-02-03T06:41:02.988Z,100.00
2023-02-03T06:43:06.357Z,100.00
2023-02-03T06:45:10.513Z,100.00
2023-02-03T06:47:13.476Z,100.00
2023-02-03T06:49:17.236Z,100.00
2023-02-03T06:51:20.276Z,100.00
2023-02-03T06:53:23.254Z,100.00
2023-02-03T06:55:27.722Z,100.00
2023-02-03T06:57:30.742Z,100.00
2023-02-03T06:59:33.726Z,100.00
2023-02-03T07:01:36.772Z,100.00
2023-02-03T07:03:39.771Z,100.00
2023-02-03T07:05:42.774Z,100.00
2023-02-03T07:07:45.743Z,100.00
2023-02-03T07:09:48.769Z,100.00
2023-02-03T07:11:53.079Z,100.00
2023-02-03T07:13:56.238Z,100.00
2023-02-03T07:15:59.319Z,100.00
2023-02-03T07:18:02.344Z,100.00
2023-02-03T07:20:06.260Z,100.00
2023-02-03T07:22:10.375Z,100.00
2023-02-03T07:24:13.307Z,100.00
2023-02-03T07:26:17.158Z,100.00
2023-02-03T07:28:21.574Z,100.00
2023-02-03T07:30:24.763Z,100.00
2023-02-03T07:32:27.862Z,100.00
2023-02-03T07:34:30.911Z,100.00
2023-02-03T07:36:34.037Z,100.00
2023-02-03T07:38:39.086Z,100.00
2023-02-03T07:40:42.275Z,100.00
2023-02-03T07:42:46.016Z,100.00
2023-02-03T07:44:50.531Z,100.00
2023-02-03T07:46:53.669Z,100.00
2023-02-03T07:48:56.680Z,100.00
2023-02-03T07:50:59.603Z,100.00
2023-02-03T07:53:02.984Z,100.00
2023-02-03T07:55:06.546Z,100.00
2023-02-03T07:57:09.587Z,100.00
2023-02-03T07:59:12.602Z,100.00
2023-02-03T08:01:17.949Z,100.00
2023-02-03T08:03:21.040Z,100.00
2023-02-03T08:05:24.072Z,100.00
2023-02-03T08:07:27.079Z,100.00
2023-02-03T08:09:30.073Z,100.00
2023-02-03T08:11:33.183Z,100.00
2023-02-03T08:13:36.337Z,100.00
2023-02-03T08:15:39.395Z,100.00
2023-02-03T08:17:44.516Z,100.00
2023-02-03T08:19:47.558Z,100.00
2023-02-03T08:21:51.578Z,100.00
2023-02-03T08:23:54.685Z,100.00
2023-02-03T08:25:57.700Z,100.00
2023-02-03T08:28:00.805Z,100.00
2023-02-03T08:30:04.043Z,100.00
2023-02-03T08:32:10.432Z,100.00
2023-02-03T08:34:14.769Z,100.00
2023-02-03T08:36:17.757Z,100.00
2023-02-03T08:38:21.835Z,100.00
2023-02-03T08:40:24.901Z,100.00
2023-02-03T08:42:28.434Z,100.00
2023-02-03T08:44:32.372Z,100.00
2023-02-03T08:46:36.426Z,100.00
2023-02-03T08:48:39.995Z,100.00
2023-02-03T08:50:45.174Z,100.00
2023-02-03T08:52:48.148Z,100.00
2023-02-03T08:54:51.285Z,100.00
2023-02-03T08:56:54.503Z,100.00
2023-02-03T08:58:57.493Z,100.00
2023-02-03T09:01:09.876Z,100.00
2023-02-03T09:03:13.017Z,100.00
2023-02-03T09:05:17.889Z,100.00
2023-02-03T09:07:22.388Z,100.00
2023-02-03T09:09:26.528Z,100.00
2023-02-03T09:11:29.571Z,100.00
2023-02-03T09:13:34.141Z,100.00
2023-02-03T09:15:38.118Z,100.00
2023-02-03T09:17:41.214Z,100.00
2023-02-03T09:19:44.432Z,100.00
2023-02-03T09:21:49.019Z,100.00
2023-02-03T09:23:53.527Z,100.00
2023-02-03T09:25:56.564Z,100.00
2023-02-03T09:27:59.518Z,100.00
2023-02-03T09:30:02.628Z,100.00
2023-02-03T09:32:10.257Z,100.00
2023-02-03T09:34:13.412Z,99.79
2023-02-03T09:36:16.365Z,100.00
2023-02-03T09:38:19.616Z,98.97
2023-02-03T09:40:27.821Z,100.00
2023-02-03T09:42:56.564Z,100.00
2023-02-03T09:45:10.654Z,99.38
2023-02-03T09:47:17.541Z,98.86
2023-02-03T09:49:25.600Z,100.00
2023-02-03T09:51:33.592Z,98.83
2023-02-03T09:53:39.425Z,100.00
2023-02-03T09:55:45.382Z,99.59
2023-02-03T09:57:53.853Z,99.26
2023-02-03T09:59:59.080Z,98.51
2023-02-03T10:02:10.226Z,99.03
2023-02-03T10:04:24.605Z,98.92
2023-02-03T10:06:33.293Z,97.85
2023-02-03T10:08:44.945Z,98.03
2023-02-03T10:11:09.671Z,96.99
2023-02-03T10:13:24.275Z,96.57
2023-02-03T10:16:02.246Z,95.27
2023-02-03T10:18:08.167Z,95.27
2023-02-03T10:20:17.072Z,95.91
2023-02-03T10:22:23.148Z,95.17
2023-02-03T10:24:29.802Z,94.02
2023-02-03T10:26:34.124Z,94.70
2023-02-03T10:28:40.452Z,95.24
2023-02-03T10:30:47.188Z,94.60
2023-02-03T10:32:53.292Z,94.45
2023-02-03T10:34:56.659Z,93.53
2023-02-03T10:37:03.335Z,94.49
2023-02-03T10:39:16.774Z,93.92
2023-02-03T10:41:20.911Z,93.43
2023-02-03T10:43:42.959Z,92.77
2023-02-03T10:45:45.955Z,92.82
2023-02-03T10:47:51.148Z,92.88
2023-02-03T10:49:55.603Z,92.70
2023-02-03T10:52:03.393Z,93.68
2023-02-03T10:54:06.478Z,93.10
2023-02-03T10:56:11.889Z,93.58
2023-02-03T10:58:18.275Z,92.98
2023-02-03T11:00:24.862Z,92.97
2023-02-03T11:02:30.237Z,93.13
2023-02-03T11:04:35.012Z,93.36
2023-02-03T11:06:55.490Z,92.31
2023-02-03T11:08:58.812Z,92.94
2023-02-03T11:11:05.910Z,92.32
2023-02-03T11:13:20.642Z,93.18
2023-02-03T11:15:25.323Z,94.34
2023-02-03T11:17:32.894Z,94.08
2023-02-03T11:19:38.434Z,94.45
2023-02-03T11:21:44.032Z,93.91
2023-02-03T11:23:50.509Z,94.54
2023-02-03T11:25:53.642Z,95.71
2023-02-03T11:27:57.347Z,96.11
2023-02-03T11:30:12.222Z,95.78
2023-02-03T11:32:21.315Z,96.72
2023-02-03T11:34:28.407Z,96.37
2023-02-03T11:36:33.430Z,95.95
2023-02-03T11:38:37.569Z,96.43
2023-02-03T11:40:41.410Z,96.70
2023-02-03T11:42:46.143Z,96.99
2023-02-03T11:44:49.310Z,97.29
2023-02-03T11:46:55.966Z,96.77
2023-02-03T11:49:05.517Z,97.09
2023-02-03T11:51:18.982Z,96.61
2023-02-03T11:53:30.674Z,96.84
2023-02-03T11:55:46.503Z,97.45
2023-02-03T11:58:00.068Z,97.20
2023-02-03T12:00:16.945Z,96.07
2023-02-03T12:02:45.145Z,96.01
2023-02-03T12:05:01.830Z,94.78
2023-02-03T12:07:26.147Z,94.95
2023-02-03T12:09:40.246Z,93.67
2023-02-03T12:11:55.999Z,92.56
2023-02-03T12:14:10.004Z,92.58
2023-02-03T12:16:28.624Z,92.96
2023-02-03T12:18:49.131Z,92.21
2023-02-03T12:21:03.592Z,92.00
2023-02-03T12:23:15.858Z,92.57
2023-02-03T12:25:29.385Z,91.56
2023-02-03T12:27:44.652Z,91.17
2023-02-03T12:29:50.957Z,91.53
2023-02-03T12:31:59.135Z,90.67
2023-02-03T12:34:10.677Z,91.27
2023-02-03T12:36:17.816Z,91.16
2023-02-03T12:38:28.268Z,90.94
2023-02-03T12:40:37.226Z,90.48
2023-02-03T12:42:43.302Z,90.29
2023-02-03T12:44:50.170Z,91.54
2023-02-03T12:46:58.219Z,91.22
2023-02-03T12:49:04.273Z,90.55
2023-02-03T12:51:11.647Z,90.13
2023-02-03T12:53:18.300Z,89.94
2023-02-03T12:55:24.637Z,90.38
2023-02-03T12:57:30.165Z,90.50
2023-02-03T12:59:34.421Z,89.89
2023-02-03T13:01:39.884Z,90.86
2023-02-03T13:03:47.519Z,91.23
2023-02-03T13:05:55.545Z,91.07
2023-02-03T13:08:02.843Z,90.01
2023-02-03T13:10:15.859Z,90.82
2023-02-03T13:12:29.008Z,89.06
2023-02-03T13:14:36.092Z,90.30
2023-02-03T13:16:42.297Z,90.66
2023-02-03T13:18:49.115Z,90.11
2023-02-03T13:20:52.197Z,90.30
2023-02-03T13:22:55.332Z,90.70
2023-02-03T13:25:02.213Z,90.61
2023-02-03T13:27:17.616Z,90.15
2023-02-03T13:29:38.344Z,90.47
2023-02-03T13:31:48.667Z,89.13
2023-02-03T13:34:12.555Z,89.17
2023-02-03T13:36:33.115Z,89.50
2023-02-03T13:38:53.516Z,89.51
2023-02-03T13:41:01.477Z,89.85
2023-02-03T13:43:07.584Z,90.06
2023-02-03T13:45:19.820Z,89.94
2023-02-03T13:47:25.137Z,90.53
2023-02-03T13:49:30.520Z,90.59
2023-02-03T13:51:35.153Z,90.52
2023-02-03T13:53:40.048Z,90.59
2023-02-03T13:55:45.213Z,90.88
2023-02-03T13:57:53.033Z,91.09
2023-02-03T13:59:57.480Z,90.30
2023-02-03T14:02:42.394Z,90.59
2023-02-03T14:04:54.058Z,90.67
2023-02-03T14:07:02.614Z,89.93
2023-02-03T14:09:20.669Z,90.26
2023-02-03T14:11:43.477Z,90.28
2023-02-03T14:13:46.546Z,91.54
2023-02-03T14:16:15.515Z,91.33
2023-02-03T14:18:35.710Z,91.04
2023-02-03T14:20:58.007Z,91.02
2023-02-03T14:23:08.909Z,91.72
2023-02-03T14:25:11.966Z,90.97
2023-02-03T14:27:19.211Z,90.36
2023-02-03T14:29:26.979Z,91.09
2023-02-03T14:31:31.623Z,91.31
2023-02-03T14:34:09.952Z,91.14
2023-02-03T14:36:28.677Z,91.59
2023-02-03T14:38:33.936Z,91.75
2023-02-03T14:40:43.177Z,91.33
2023-02-03T14:43:09.519Z,91.52
2023-02-03T14:45:20.875Z,91.96
2023-02-03T14:47:37.210Z,92.66
2023-02-03T14:49:56.862Z,91.17
2023-02-03T14:52:13.505Z,91.06
2023-02-03T14:54:30.678Z,91.86
2023-02-03T14:56:58.120Z,91.93
2023-02-03T14:59:03.483Z,91.94
2023-02-03T15:01:08.249Z,92.49
2023-02-03T15:03:41.739Z,92.57
2023-02-03T15:05:45.989Z,91.59
2023-02-03T15:07:50.845Z,91.94
2023-02-03T15:09:56.480Z,91.19
2023-02-03T15:11:59.835Z,92.04
2023-02-03T15:14:19.664Z,92.23
2023-02-03T15:16:24.013Z,91.57
2023-02-03T15:18:31.467Z,92.79
2023-02-03T15:20:41.383Z,92.17
2023-02-03T15:22:44.627Z,92.18
2023-02-03T15:24:48.760Z,93.16
2023-02-03T15:26:53.765Z,93.85
2023-02-03T15:28:58.432Z,93.16
2023-02-03T15:31:05.409Z,93.75
2023-02-03T15:33:10.378Z,94.59
2023-02-03T15:35:17.139Z,94.84
2023-02-03T15:37:24.582Z,95.20
2023-02-03T15:39:39.055Z,94.93
2023-02-03T15:41:42.427Z,95.40
2023-02-03T15:43:47.089Z,95.23
2023-02-03T15:45:58.799Z,95.46
2023-02-03T15:48:05.307Z,95.55
2023-02-03T15:50:25.106Z,96.38
2023-02-03T15:52:30.389Z,96.60
2023-02-03T15:54:41.110Z,96.25
2023-02-03T15:56:48.313Z,97.59
2023-02-03T15:58:51.575Z,97.09
2023-02-03T16:00:55.788Z,97.72
2023-02-03T16:02:59.908Z,98.08
2023-02-03T16:05:05.589Z,97.82
2023-02-03T16:07:17.245Z,98.47
2023-02-03T16:09:42.528Z,98.01
2023-02-03T16:11:45.585Z,99.63
2023-02-03T16:13:48.621Z,99.57
2023-02-03T16:16:02.652Z,99.78
2023-02-03T16:18:12.789Z,99.09
2023-02-03T16:20:28.109Z,100.00
2023-02-03T16:22:37.088Z,98.90
2023-02-03T16:24:45.762Z,99.62
2023-02-03T16:26:48.869Z,99.23
2023-02-03T16:29:33.292Z,100.00
2023-02-03T16:32:00.464Z,99.56
2023-02-03T16:34:27.157Z,100.00
2023-02-03T16:36:47.763Z,100.00
2023-02-03T16:39:09.043Z,100.00
2023-02-03T16:41:35.474Z,100.00
2023-02-03T16:43:56.192Z,100.00
2023-02-03T16:46:18.038Z,100.00
2023-02-03T16:48:38.752Z,100.00
2023-02-03T16:50:56.950Z,100.00
2023-02-03T16:53:01.977Z,100.00
2023-02-03T16:55:05.214Z,100.00
2023-02-03T16:57:09.733Z,100.00
2023-02-03T16:59:13.112Z,100.00
2023-02-03T17:01:16.191Z,100.00
2023-02-03T17:03:20.464Z,100.00
2023-02-03T17:05:23.573Z,100.00
2023-02-03T17:07:26.618Z,100.00
2023-02-03T17:09:32.233Z,100.00
2023-02-03T17:11:35.297Z,100.00
2023-02-03T17:13:39.654Z,100.00
2023-02-03T17:15:46.166Z,100.00
2023-02-03T17:17:49.217Z,100.00
2023-02-03T17:19:52.266Z,100.00
2023-02-03T17:21:56.048Z,99.97
2023-02-03T17:23:59.210Z,99.59
2023-02-03T17:26:02.348Z,100.00
2023-02-03T17:28:05.964Z,100.00
2023-02-03T17:30:12.009Z,100.00
2023-02-03T17:32:17.254Z,100.00
2023-02-03T17:34:20.309Z,100.00
2023-02-03T17:36:23.448Z,100.00
2023-02-03T17:38:26.638Z,99.54
2023-02-03T17:54:34.743Z,98.94
2023-02-03T17:56:37.739Z,98.93
2023-02-03T17:58:41.274Z,99.74
2023-02-03T18:00:45.588Z,99.57
2023-02-03T18:02:50.491Z,100.00
2023-02-03T18:04:53.481Z,99.49
2023-02-03T18:06:56.579Z,99.35
2023-02-03T18:09:01.990Z,99.15
2023-02-03T18:11:05.631Z,99.37
2023-02-03T18:13:08.699Z,98.96
2023-02-03T18:15:11.815Z,99.84
2023-02-03T18:17:16.192Z,100.00
2023-02-03T18:19:19.203Z,100.00
2023-02-03T18:21:23.773Z,100.00
2023-02-03T18:23:26.826Z,100.00
2023-02-03T18:25:29.989Z,100.00
2023-02-03T18:27:33.054Z,100.00
2023-02-03T18:29:36.668Z,100.00
2023-02-03T18:31:40.508Z,100.00
2023-02-03T18:33:46.289Z,100.00
2023-02-03T18:35:49.438Z,100.00
2023-02-03T18:37:52.740Z,100.00
2023-02-03T18:39:55.845Z,100.00
2023-02-03T18:41:58.963Z,100.00
2023-02-03T18:44:02.041Z,100.00
2023-02-03T18:46:08.914Z,100.00
2023-02-03T18:48:11.949Z,100.00
2023-02-03T18:50:16.920Z,100.00
2023-02-03T18:52:19.992Z,100.00
2023-02-03T18:54:23.069Z,100.00
2023-02-03T18:56:27.640Z,100.00
2023-02-03T18:58:30.612Z,100.00
2023-02-03T19:00:33.624Z,100.00
2023-02-03T19:02:36.758Z,100.00
2023-02-03T19:04:39.870Z,100.00
2023-02-03T19:06:45.618Z,100.00
2023-02-03T19:08:48.756Z,100.00
2023-02-03T19:10:52.847Z,100.00
2023-02-03T19:12:55.935Z,100.00
2023-02-03T19:14:58.925Z,100.00
2023-02-03T19:17:02.096Z,100.00
2023-02-03T19:19:05.165Z,100.00
2023-02-03T19:21:08.408Z,100.00
2023-02-03T19:23:13.696Z,100.00
2023-02-03T19:25:16.816Z,100.00
2023-02-03T19:27:19.991Z,100.00
2023-02-03T19:29:23.296Z,100.00
2023-02-03T19:31:26.430Z,100.00
2023-02-03T19:33:29.672Z,100.00
2023-02-03T19:35:33.489Z,100.00
2023-02-03T19:37:36.605Z,100.00
2023-02-03T19:39:41.241Z,100.00
2023-02-03T19:41:44.349Z,100.00
2023-02-03T19:43:47.844Z,100.00
2023-02-03T19:45:50.945Z,100.00
2023-02-03T19:47:54.240Z,100.00
2023-02-03T19:49:57.721Z,100.00
2023-02-03T19:52:00.780Z,100.00
2023-02-03T19:54:03.978Z,100.00
2023-02-03T19:56:08.530Z,100.00
2023-02-03T19:58:12.367Z,100.00
2023-02-03T20:00:16.251Z,100.00
2023-02-03T20:02:21.673Z,100.00
2023-02-03T20:04:24.987Z,100.00
2023-02-03T20:06:28.846Z,100.00
2023-02-03T20:08:31.888Z,100.00
2023-02-03T20:10:35.003Z,100.00
2023-02-03T20:12:39.661Z,100.00
2023-02-03T20:14:42.684Z,100.00
2023-02-03T20:16:50.520Z,100.00
2023-02-03T20:18:53.621Z,100.00
2023-02-03T20:20:58.100Z,100.00
2023-02-03T20:23:01.359Z,100.00
2023-02-03T20:25:05.985Z,100.00
2023-02-03T20:27:09.233Z,100.00
2023-02-03T20:29:13.912Z,100.00
2023-02-03T20:31:17.123Z,100.00
2023-02-03T20:33:20.510Z,100.00
2023-02-03T20:35:25.248Z,100.00
2023-02-03T20:37:29.073Z,100.00
2023-02-03T20:39:32.230Z,100.00
2023-02-03T20:41:35.690Z,100.00
2023-02-03T20:43:39.149Z,100.00
2023-02-03T20:45:43.689Z,100.00
2023-02-03T20:47:46.796Z,100.00
2023-02-03T20:49:50.502Z,100.00
2023-02-03T20:51:53.548Z,100.00
2023-02-03T20:53:57.183Z,100.00
2023-02-03T20:56:01.760Z,100.00
2023-02-03T20:58:07.833Z,100.00
2023-02-03T21:00:15.836Z,100.00
2023-02-03T21:02:30.823Z,100.00
2023-02-03T21:04:51.401Z,100.00
2023-02-03T21:06:55.872Z,100.00
2023-02-03T21:09:03.928Z,100.00
2023-02-03T21:11:11.239Z,100.00
2023-02-03T21:13:26.223Z,100.00
2023-02-03T21:15:30.691Z,100.00
2023-02-03T21:17:37.178Z,100.00
2023-02-03T21:19:40.266Z,100.00
2023-02-03T21:21:43.987Z,100.00
2023-02-03T21:23:47.888Z,100.00
2023-02-03T21:25:51.126Z,100.00
2023-02-03T21:27:54.759Z,100.00
2023-02-03T21:29:58.432Z,100.00
2023-02-03T21:32:01.974Z,100.00
2023-02-03T21:34:21.970Z,100.00
2023-02-03T21:36:26.279Z,100.00
2023-02-03T21:38:32.368Z,100.00
2023-02-03T21:40:36.161Z,100.00
2023-02-03T21:42:41.952Z,100.00
2023-02-03T21:44:45.547Z,100.00
2023-02-03T21:46:48.585Z,100.00
2023-02-03T21:48:52.840Z,100.00
2023-02-03T21:50:58.424Z,100.00
2023-02-03T21:53:04.049Z,100.00
2023-02-03T21:55:11.511Z,100.00
2023-02-03T21:57:15.497Z,100.00
2023-02-03T21:59:20.998Z,100.00
2023-02-03T22:01:25.996Z,100.00
2023-02-03T22:03:30.197Z,100.00
2023-02-03T22:05:33.340Z,100.00
2023-02-03T22:07:37.768Z,100.00
2023-02-03T22:09:40.813Z,100.00
2023-02-03T22:11:44.134Z,100.00
2023-02-03T22:13:47.684Z,100.00
2023-02-03T22:15:50.668Z,100.00
2023-02-03T22:17:53.738Z,100.00
2023-02-03T22:19:56.726Z,100.00
2023-02-03T22:21:59.669Z,100.00
2023-02-03T22:24:04.176Z,100.00
2023-02-03T22:26:07.762Z,100.00
2023-02-03T22:28:10.957Z,100.00
2023-02-03T22:30:15.665Z,100.00
2023-02-03T22:32:18.825Z,100.00
2023-02-03T22:34:23.419Z,100.00
2023-02-03T22:36:26.528Z,100.00
2023-02-03T22:38:29.579Z,100.00
2023-02-03T22:40:33.943Z,100.00
2023-02-03T22:42:37.051Z,100.00
2023-02-03T22:44:40.081Z,100.00
2023-02-03T22:46:43.299Z,100.00
2023-02-03T22:48:46.283Z,100.00
2023-02-03T22:50:49.268Z,100.00
2023-02-03T22:52:54.084Z,100.00
2023-02-03T22:54:57.102Z,100.00
2023-02-03T22:57:01.547Z,100.00
2023-02-03T22:59:04.566Z,100.00
2023-02-03T23:01:07.609Z,100.00
2023-02-03T23:03:10.794Z,100.00
2023-02-03T23:05:14.308Z,100.00
2023-02-03T23:07:17.850Z,100.00
2023-02-03T23:09:21.010Z,100.00
2023-02-03T23:11:24.258Z,100.00
2023-02-03T23:13:28.859Z,100.00
2023-02-03T23:15:31.986Z,100.00
2023-02-03T23:17:35.304Z,100.00
2023-02-03T23:19:38.404Z,100.00
2023-02-03T23:21:41.667Z,100.00
2023-02-03T23:23:44.702Z,100.00
2023-02-03T23:25:47.700Z,100.00
2023-02-03T23:27:50.811Z,100.00
2023-02-03T23:29:55.367Z,100.00
2023-02-03T23:31:58.509Z,100.00
2023-02-03T23:34:19.315Z,100.00
2023-02-03T23:36:22.264Z,100.00
2023-02-03T23:38:25.554Z,100.00
2023-02-03T23:40:29.210Z,100.00
2023-02-03T23:42:32.433Z,100.00
2023-02-03T23:44:35.533Z,100.00
2023-02-03T23:46:40.016Z,100.00
2023-02-03T23:48:43.189Z,100.00
2023-02-03T23:50:46.310Z,100.00
2023-02-03T23:52:49.518Z,100.00
2023-02-03T23:54:52.589Z,100.00
2023-02-03T23:56:55.673Z,100.00
2023-02-03T23:58:58.722Z,100.00
